Data for 05/05/2015

Time Sea-Level Adjusted Pressure Absolute Pressure Temperature Relative Humidity Dew Point   
(mb) (inHg) (mb) (inHg) (C) (F) (%) (C) (F)
00:05 1013 29.91 842 24.86 13 55.4 50 2.8 37
00:10 1013 29.91 842 24.86 12.9 55.2 50 2.8 37
00:15 1013 29.91 842 24.86 12.5 54.6 52 3 37.4
00:20 1013 29.91 842 24.86 12.1 53.7 53 2.9 37.2
00:25 1013 29.91 842 24.86 11.6 52.9 55 3 37.4
00:30 1013 29.91 842 24.86 11.1 52 53 2 35.7
00:35 1013 29.91 842 24.86 11.1 52.1 52 1.7 35
00:40 1013 29.91 842 24.86 11.1 52 52 1.7 35
00:45 1013 29.91 842 24.86 11.1 51.9 51 1.3 34.4
00:50 1013 29.91 842 24.86 11.3 52.3 49 0.9 33.7
00:55 1013 29.91 842 24.86 11.6 52.9 47 0.9 33.6
01:00 1013 29.91 842 24.86 11.9 53.3 48 1.2 34.1
01:05 1013 29.91 842 24.86 11.7 53 48 1 33.7
01:10 1013 29.91 842 24.86 11.4 52.5 50 1.3 34.3
01:15 1013 29.91 842 24.86 11.1 51.9 51 1.3 34.4
01:20 1013 29.91 842 24.86 11.1 51.9 50 1.1 34
01:25 1013 29.91 842 24.86 11 51.7 51 1.3 34.3
01:30 1013 29.91 842 24.86 10.9 51.6 51 1.1 34
01:35 1013 29.91 842 24.86 10.7 51.3 50 0.9 33.6
01:40 1013 29.91 842 24.86 10.8 51.4 50 0.9 33.7
01:45 1013 29.91 842 24.86 11 51.8 49 0.8 33.5
01:50 1013 29.91 842 24.86 10.9 51.7 49 0.7 33.2
01:55 1013 29.91 842 24.86 10.8 51.5 50 0.9 33.6
02:00 1013 29.91 842 24.86 10.8 51.4 51 1 33.8
02:05 1013 29.91 842 24.86 10.8 51.4 50 1 33.7
02:10 1013 29.91 842 24.86 11.1 52 49 0.9 33.7
02:15 1013 29.91 842 24.86 11.6 52.8 49 1.2 34.2
02:20 1013 29.91 842 24.86 11.4 52.6 49 1.2 34.2
02:25 1013 29.91 842 24.86 11.5 52.6 49 1.1 34
02:30 1013 29.91 842 24.86 11.5 52.6 48 0.9 33.6
02:35 1013 29.91 842 24.86 11.5 52.7 48 0.9 33.7
02:40 1013 29.91 842 24.86 11.3 52.3 49 1.1 34
02:45 1013 29.91 842 24.86 11.1 51.9 48 0.6 33
02:50 1013 29.91 842 24.86 11 51.8 49 0.7 33.3
02:55 1013 29.91 842 24.86 10.9 51.7 49 0.7 33.2
03:00 1013 29.91 842 24.86 10.8 51.4 49 0.6 33
03:05 1013 29.91 842 24.86 10.8 51.5 49 0.5 32.9
03:10 1013 29.91 842 24.86 10.7 51.3 48 0.3 32.5
03:15 1013 29.91 842 24.86 10.7 51.3 48 0.4 32.6
03:20 1013 29.91 842 24.86 10.8 51.4 48 0.3 32.5
03:25 1013 29.91 842 24.86 10.9 51.6 48 0.3 32.5
03:30 1013 29.91 842 24.86 10.8 51.5 48 0.4 32.7
03:35 1013 29.91 842 24.86 10.7 51.2 49 0.4 32.7
03:40 1013 29.91 842 24.86 10.5 50.9 49 0.3 32.5
03:45 1013 29.91 842 24.86 10.5 50.9 49 0.4 32.7
03:50 1013 29.91 842 24.86 10.6 51.1 49 0.3 32.6
03:55 1013 29.91 842 24.86 10.6 51 50 0.5 32.9
04:00 1013 29.91 842 24.86 10.2 50.4 49 0.1 32.3
04:05 1012 29.88 842 24.86 10.4 50.7 49 0.3 32.5
04:10 1012 29.88 842 24.86 10.4 50.6 49 0.1 32.1
04:15 1012 29.88 842 24.86 10.5 50.8 48 -0.1 31.8
04:20 1013 29.91 842 24.86 10.8 51.4 46 -0.4 31.2
04:25 1013 29.91 842 24.86 11 51.8 45 -0.3 31.5
04:30 1013 29.91 842 24.86 10.7 51.2 48 0.1 32.2
04:35 1012 29.88 842 24.86 10.4 50.7 48 -0.2 31.7
04:40 1012 29.88 842 24.86 10.3 50.6 48 -0.3 31.5
04:45 1012 29.88 842 24.86 10.6 51 47 -0.2 31.6
04:50 1012 29.88 842 24.86 10.5 50.9 46 -0.5 31.2
04:55 1012 29.88 842 24.86 10.6 51 46 -0.5 31.1
05:00 1012 29.88 842 24.86 10.8 51.5 46 -0.3 31.5
05:05 1012 29.88 842 24.86 10.5 51 47 -0.2 31.7
05:10 1013 29.91 842 24.86 10.3 50.5 47 -0.6 30.9
05:15 1013 29.91 842 24.86 10.3 50.6 47 -0.5 31.1
05:20 1013 29.91 842 24.86 10.4 50.6 47 -0.5 31.1
05:25 1013 29.91 842 24.86 10.3 50.5 48 -0.3 31.5
05:30 1013 29.91 842 24.86 10.1 50.2 48 -0.4 31.2
05:35 1013 29.91 842 24.86 10.2 50.3 48 -0.4 31.3
05:40 1013 29.91 842 24.86 10.1 50.2 47 -0.6 31
05:45 1012 29.88 842 24.86 10.3 50.5 47 -0.5 31
05:50 1012 29.88 842 24.86 10.4 50.7 48 -0.2 31.6
05:55 1013 29.91 842 24.86 10.3 50.5 47 -0.5 31.2
06:00 1013 29.91 842 24.86 10.5 50.8 46 -0.7 30.8
06:05 1013 29.91 842 24.86 10.9 51.7 45 -0.6 30.9
06:10 1013 29.91 842 24.86 11.3 52.4 43 -0.6 30.9
06:15 1013 29.91 842 24.86 11.8 53.2 42 -0.6 31
06:20 1013 29.91 842 24.86 12 53.7 42 -0.4 31.4
06:25 1013 29.91 842 24.86 12.1 53.8 42 -0.3 31.4
06:30 1013 29.91 842 24.86 11.9 53.4 44 0.1 32.2
06:35 1013 29.91 842 24.86 11.6 52.8 45 0.2 32.3
06:40 1013 29.91 842 24.86 11.3 52.4 47 0.4 32.6
06:45 1013 29.91 842 24.86 11.4 52.5 44 -0.3 31.4
06:50 1013 29.91 842 24.86 11.9 53.4 42 -0.5 31.2
06:55 1013 29.91 842 24.86 12.6 54.7 39 -1 30.3
07:00 1013 29.91 842 24.86 13.4 56.2 36 -1.2 29.9
07:05 1013 29.91 842 24.86 14 57.3 38 -0 31.9
07:10 1013 29.91 842 24.86 14.1 57.3 38 0.2 32.4
07:15 1013 29.91 842 24.86 14.4 58 37 0.1 32.2
07:20 1013 29.91 842 24.86 14.9 58.9 35 -0.3 31.5
07:25 1013 29.91 842 24.86 15 59 36 -0 32
07:30 1013 29.91 842 24.86 15.1 59.2 36 0.3 32.6
07:35 1013 29.91 842 24.86 15.1 59.2 36 0.2 32.4
07:40 1013 29.91 842 24.86 15.6 60 33 -0.4 31.2
07:45 1013 29.91 842 24.86 15.7 60.3 34 0 32
07:50 1013 29.91 842 24.86 16.1 61.1 33 -0.2 31.6
07:55 1013 29.91 842 24.86 16.7 62.1 32 0.2 32.3
08:00 1012 29.88 842 24.86 16.7 62.1 31 -0.5 31.1
08:05 1012 29.88 842 24.86 16.8 62.3 32 0.2 32.4
08:10 1012 29.88 842 24.86 16.6 61.8 32 -0 32
08:15 1012 29.88 842 24.86 17 62.5 32 0.2 32.3
08:20 1012 29.88 842 24.86 17.3 63.1 31 0.2 32.4
08:25 1012 29.88 842 24.86 17.7 63.8 30 0 32
08:30 1012 29.88 842 24.86 17.8 64.1 31 0.5 32.9
08:35 1012 29.88 842 24.86 17.8 64.1 34 1.8 35.2
08:40 1012 29.88 842 24.86 18.2 64.8 34 2.3 36.2
08:45 1012 29.88 842 24.86 18.2 64.7 38 3.6 38.5
08:50 1012 29.88 842 24.86 17.1 62.7 43 4.4 39.9
08:55 1012 29.88 842 24.86 16.8 62.2 43 4.4 39.9
09:00 1012 29.88 842 24.86 16.3 61.3 43 3.8 38.8
09:05 1012 29.88 842 24.86 17 62.6 41 3.8 38.9
09:10 1012 29.88 842 24.86 17.1 62.8 39 3.3 38
09:15 1012 29.88 842 24.86 17 62.6 40 3.5 38.4
09:20 1013 29.91 842 24.86 17.8 64.1 36 2.7 36.8
09:25 1013 29.91 842 24.86 17.7 63.9 38 3.4 38.1
09:30 1013 29.91 842 24.86 18.1 64.7 35 2.7 36.8
09:35 1013 29.91 842 24.86 18.7 65.6 36 3.5 38.3
09:40 1013 29.91 842 24.86 18.2 64.8 36 3.1 37.5
09:45 1013 29.91 842 24.86 18.6 65.6 36 3.3 38
09:50 1013 29.91 842 24.86 18.4 65.2 36 3.4 38.1
09:55 1013 29.91 842 24.86 17.8 64 37 3 37.4
10:00 1013 29.91 842 24.86 17.9 64.2 37 3 37.4
10:05 1013 29.91 842 24.86 17.6 63.6 37 2.8 37
10:10 1013 29.91 842 24.86 17.6 63.6 37 2.7 36.9
10:15 1013 29.91 842 24.86 17.6 63.7 35 2 35.6
10:20 1013 29.91 842 24.86 17.9 64.2 31 0.8 33.5
10:25 1012 29.88 842 24.86 17.6 63.8 33 1.3 34.3
10:30 1012 29.88 842 24.86 17.8 64 32 1 33.8
10:35 1012 29.88 842 24.86 18.3 64.9 31 1 33.9
10:40 1012 29.88 842 24.86 18.5 65.2 31 1.1 33.9
10:45 1012 29.88 842 24.86 17.9 64.2 30 0.1 32.2
10:50 1012 29.88 841 24.83 18.5 65.3 28 -0.3 31.5
10:55 1012 29.88 841 24.83 18.6 65.5 30 0.8 33.5
11:00 1012 29.88 841 24.83 18.3 65 31 0.9 33.5
11:05 1012 29.88 841 24.83 17.7 63.9 30 0.2 32.4
11:10 1012 29.88 841 24.83 18.2 64.8 30 0.5 32.9
11:15 1012 29.88 841 24.83 18 64.3 32 1.2 34.2
11:20 1012 29.88 841 24.83 17.9 64.2 33 1.7 35
11:25 1012 29.88 841 24.83 18.4 65.1 31 0.9 33.6
11:30 1012 29.88 841 24.83 18.1 64.5 31 0.8 33.4
11:35 1012 29.88 841 24.83 18.5 65.3 30 0.8 33.4
11:40 1011 29.85 841 24.83 18.5 65.2 30 0.8 33.4
11:45 1011 29.85 841 24.83 18.9 66 29 0.6 33.1
11:50 1011 29.85 841 24.83 18.5 65.4 32 1.6 34.9
11:55 1012 29.88 841 24.83 18.4 65.1 31 1.2 34.1
12:00 1012 29.88 841 24.83 18.3 64.9 32 1.3 34.3
12:05 1012 29.88 841 24.83 17.8 64.1 32 1.1 33.9
12:10 1012 29.88 841 24.83 17.5 63.5 33 1.1 33.9
12:15 1012 29.88 841 24.83 17.4 63.2 32 0.7 33.3
12:20 1012 29.88 841 24.83 17.5 63.6 32 0.6 33.1
12:25 1012 29.88 841 24.83 17.3 63.1 35 1.7 35
12:30 1012 29.88 841 24.83 16.6 61.9 34 0.8 33.5
12:35 1012 29.88 841 24.83 16.3 61.4 34 0.7 33.3
12:40 1012 29.88 841 24.83 16 60.8 36 1.2 34.1
12:45 1012 29.88 841 24.83 15.8 60.5 39 1.8 35.3
12:50 1012 29.88 841 24.83 15.7 60.2 36 0.8 33.5
12:55 1012 29.88 841 24.83 16 60.7 36 0.9 33.6
13:00 1012 29.88 841 24.83 15.9 60.7 41 2.9 37.3
13:05 1012 29.88 841 24.83 15.2 59.4 45 3.5 38.4
13:10 1012 29.88 841 24.83 14.5 58 48 3.8 38.8
13:15 1012 29.88 841 24.83 14.1 57.3 53 4.6 40.4
13:20 1012 29.88 841 24.83 13.7 56.7 53 4.5 40.1
13:25 1012 29.88 841 24.83 13.4 56 57 5 40.9
13:30 1012 29.88 841 24.83 13 55.5 55 4.2 39.5
13:35 1012 29.88 841 24.83 13 55.5 56 4.5 40
13:40 1012 29.88 841 24.83 13 55.4 54 3.9 39
13:45 1012 29.88 841 24.83 13.1 55.6 56 4.5 40.2
13:50 1012 29.88 841 24.83 13.1 55.6 54 4.1 39.4
13:55 1012 29.88 841 24.83 13.3 55.9 56 4.8 40.6
14:00 1012 29.88 841 24.83 13.1 55.6 57 4.8 40.6
14:05 1012 29.88 841 24.83 13 55.5 57 4.7 40.5
14:10 1012 29.88 841 24.83 13 55.4 58 5 41
14:15 1012 29.88 841 24.83 13 55.4 56 4.5 40.2
14:20 1012 29.88 841 24.83 13 55.3 56 4.5 40.1
14:25 1012 29.88 841 24.83 13 55.4 59 5.2 41.3
14:30 1012 29.88 841 24.83 12.8 55 59 5 41
14:35 1011 29.85 841 24.83 12.9 55.3 58 4.9 40.8
14:40 1011 29.85 841 24.83 13 55.3 59 5.1 41.3
14:45 1011 29.85 840 24.81 12.8 55 59 5 41.1
14:50 1011 29.85 840 24.81 12.8 55.1 58 4.8 40.6
14:55 1011 29.85 841 24.83 12.8 55 57 4.6 40.3
15:00 1011 29.85 841 24.83 12.8 55 57 4.5 40.1
15:05 1011 29.85 841 24.83 12.9 55.2 56 4.3 39.8
15:10 1011 29.85 841 24.83 13.3 55.9 52 3.7 38.6
15:15 1011 29.85 841 24.83 13.6 56.5 53 4.3 39.8
15:20 1011 29.85 841 24.83 13.6 56.6 53 4.4 39.9
15:25 1011 29.85 841 24.83 13.5 56.3 54 4.3 39.8
15:30 1011 29.85 841 24.83 13.3 56 56 4.8 40.7
15:35 1011 29.85 841 24.83 12.7 54.9 61 5.4 41.8
15:40 1011 29.85 841 24.83 12.4 54.4 63 5.6 42.1
15:45 1011 29.85 840 24.81 12.3 54.1 65 6 42.8
15:50 1011 29.85 840 24.81 12.2 54 66 6.1 42.9
15:55 1011 29.85 840 24.81 12.5 54.6 62 5.4 41.8
16:00 1011 29.85 840 24.81 13 55.4 60 5.4 41.7
16:05 1011 29.85 840 24.81 13.4 56 56 4.9 40.8
16:10 1011 29.85 841 24.83 13.9 57.1 55 5 41
16:15 1011 29.85 841 24.83 13.9 56.9 55 5 41
16:20 1011 29.85 841 24.83 14.1 57.4 54 5 41
16:25 1012 29.88 841 24.83 14.4 57.9 53 5.1 41.2
16:30 1012 29.88 841 24.83 14 57.1 53 4.6 40.3
16:35 1012 29.88 841 24.83 14.1 57.3 53 4.6 40.4
16:40 1012 29.88 841 24.83 14.1 57.4 53 4.7 40.5
16:45 1012 29.88 841 24.83 14.4 57.8 57 6 42.8
16:50 1012 29.88 841 24.83 14.2 57.6 57 5.9 42.6
16:55 1012 29.88 841 24.83 14.1 57.4 58 5.9 42.7
17:00 1012 29.88 841 24.83 13.8 56.8 57 5.6 42.1
17:05 1012 29.88 841 24.83 13.7 56.6 57 5.3 41.6
17:10 1012 29.88 841 24.83 14 57.2 54 5 41.1
17:15 1012 29.88 841 24.83 14.3 57.8 55 5.5 41.9
17:20 1012 29.88 841 24.83 14.4 57.8 52 4.6 40.3
17:25 1012 29.88 841 24.83 14.5 58.1 52 4.7 40.5
17:30 1012 29.88 841 24.83 14.1 57.4 52 4.6 40.3
17:35 1012 29.88 841 24.83 13.8 56.8 54 4.8 40.6
17:40 1012 29.88 841 24.83 13.4 56 55 4.5 40.2
17:45 1012 29.88 841 24.83 13.1 55.6 56 4.6 40.4
17:50 1012 29.88 841 24.83 13.1 55.5 56 4.6 40.3
17:55 1012 29.88 841 24.83 12.9 55.2 57 4.8 40.6
18:00 1012 29.88 841 24.83 12.6 54.8 59 4.8 40.6
18:05 1012 29.88 841 24.83 12.4 54.3 60 4.9 40.9
18:10 1012 29.88 841 24.83 12.3 54.2 60 4.7 40.5
18:15 1012 29.88 841 24.83 12.3 54.2 62 5.4 41.7
18:20 1012 29.88 841 24.83 12 53.6 63 5.2 41.3
18:25 1012 29.88 841 24.83 12 53.7 63 5.2 41.3
18:30 1012 29.88 841 24.83 11.9 53.5 64 5.4 41.8
18:35 1012 29.88 841 24.83 11.9 53.3 65 5.5 41.9
18:40 1012 29.88 841 24.83 11.7 53 67 5.8 42.4
18:45 1012 29.88 841 24.83 11.5 52.7 67 5.6 42
18:50 1012 29.88 841 24.83 11.4 52.4 67 5.4 41.8
18:55 1012 29.88 841 24.83 11.4 52.5 66 5.3 41.5
19:00 1012 29.88 841 24.83 11.4 52.5 65 5 41
19:05 1012 29.88 841 24.83 11.3 52.4 65 5 41.1
19:10 1012 29.88 841 24.83 11.4 52.4 62 4.4 40
19:15 1012 29.88 841 24.83 11.5 52.6 62 4.4 39.9
19:20 1012 29.88 841 24.83 11.6 52.8 61 4.4 40
19:25 1012 29.88 841 24.83 11.5 52.8 62 4.6 40.3
19:30 1012 29.88 841 24.83 11.6 52.8 62 4.6 40.2
19:35 1012 29.88 841 24.83 11.6 52.8 62 4.5 40.1
19:40 1012 29.88 841 24.83 11.5 52.7 62 4.6 40.2
19:45 1012 29.88 841 24.83 11.5 52.6 62 4.4 39.9
19:50 1012 29.88 841 24.83 11.5 52.7 62 4.5 40
19:55 1012 29.88 841 24.83 11.5 52.8 61 4.4 40
20:00 1012 29.88 841 24.83 11.5 52.7 63 4.7 40.4
20:05 1012 29.88 841 24.83 11.6 52.8 62 4.5 40.1
20:10 1012 29.88 841 24.83 11.5 52.7 61 4.3 39.7
20:15 1012 29.88 841 24.83 11.5 52.7 62 4.5 40
20:20 1012 29.88 841 24.83 11.4 52.5 62 4.5 40.1
20:25 1012 29.88 841 24.83 11.4 52.4 63 4.6 40.3
20:30 1012 29.88 841 24.83 11.3 52.3 63 4.6 40.3
20:35 1012 29.88 841 24.83 11.2 52.2 64 4.7 40.4
20:40 1012 29.88 842 24.86 11.1 52 64 4.7 40.5
20:45 1012 29.88 842 24.86 11 51.8 65 4.7 40.4
20:50 1012 29.88 842 24.86 11 51.7 67 5 41
20:55 1012 29.88 842 24.86 10.7 51.2 69 5.2 41.3
21:00 1012 29.88 842 24.86 10.4 50.6 70 5.1 41.2
21:05 1012 29.88 842 24.86 10.2 50.4 70 5.1 41.2
21:10 1012 29.88 842 24.86 10.1 50.2 70 4.9 40.7
21:15 1013 29.91 842 24.86 10.1 50.2 70 4.9 40.8
21:20 1013 29.91 842 24.86 10 50 70 4.7 40.5
21:25 1012 29.88 842 24.86 10 49.9 70 4.8 40.7
21:30 1012 29.88 842 24.86 9.8 49.7 71 4.8 40.7
21:35 1013 29.91 842 24.86 9.7 49.5 72 4.9 40.7
21:40 1013 29.91 842 24.86 9.6 49.4 71 4.8 40.6
21:45 1013 29.91 842 24.86 9.7 49.4 72 4.8 40.7
21:50 1013 29.91 842 24.86 9.6 49.3 72 4.9 40.9
21:55 1013 29.91 842 24.86 9.5 49.2 73 4.9 40.8
22:00 1013 29.91 842 24.86 9.5 49.2 73 5 41
22:05 1013 29.91 842 24.86 9.5 49 74 5 41
22:10 1013 29.91 842 24.86 9.4 49 74 5.1 41.1
22:15 1013 29.91 842 24.86 9.4 49 74 5.1 41.2
22:20 1013 29.91 842 24.86 9.5 49 74 5.1 41.2
22:25 1013 29.91 842 24.86 9.5 49.2 73 4.9 40.9
22:30 1013 29.91 842 24.86 9.6 49.3 72 4.9 40.8
22:35 1013 29.91 842 24.86 9.6 49.4 72 4.9 40.9
22:40 1013 29.91 842 24.86 9.6 49.3 73 5 41
22:45 1013 29.91 842 24.86 9.6 49.3 73 5.1 41.2
22:50 1013 29.91 842 24.86 9.7 49.5 73 5.1 41.2
22:55 1013 29.91 842 24.86 9.8 49.6 73 5.1 41.3
23:00 1013 29.91 842 24.86 9.8 49.7 72 5.1 41.2
23:05 1013 29.91 842 24.86 9.9 49.7 72 5.2 41.3
23:10 1013 29.91 842 24.86 9.9 49.8 73 5.3 41.5
23:15 1013 29.91 842 24.86 9.8 49.7 73 5.3 41.5
23:20 1013 29.91 842 24.86 9.9 49.7 73 5.4 41.6
23:25 1013 29.91 842 24.86 9.8 49.7 74 5.5 41.8
23:30 1013 29.91 842 24.86 9.7 49.4 75 5.6 42
23:35 1013 29.91 842 24.86 9.5 49.1 76 5.5 41.9
23:40 1013 29.91 842 24.86 9.5 49 76 5.5 41.8
23:45 1013 29.91 842 24.86 9.4 49 76 5.5 41.9
23:50 1013 29.91 842 24.86 9.4 48.8 76 5.3 41.6
23:55 1013 29.91 842 24.86 9.4 48.8 75 5.3 41.5
24:00 1013 29.91 842 24.86 9.4 48.9 75 5.3 41.5